Time,TemperatureF,DewpointF,PressureIn,WindDirection,WindDirectionDegrees,WindSpeedMPH,WindSpeedGustMPH,Humidity,HourlyPrecipIn,Conditions,Clouds,dailyrainin,SoftwareType,DateUTC
2013-02-23 00:05:00,26.8,11.0,29.91,West,267,5.0,9.0,51,0.00,,,0.01,weatherlink.com 1.10,2013-02-23 07:05:00,
2013-02-23 00:20:00,26.3,11.0,29.91,South,191,4.0,8.0,53,0.00,,,0.01,weatherlink.com 1.10,2013-02-23 07:20:00,
2013-02-23 00:36:00,26.7,10.0,29.91,SW,215,3.0,9.0,50,0.00,,,0.01,weatherlink.com 1.10,2013-02-23 07:36:00,
2013-02-23 00:51:00,26.5,10.0,29.91,West,274,0.0,8.0,49,0.00,,,0.01,weatherlink.com 1.10,2013-02-23 07:51:00,
2013-02-23 01:06:00,26.5,9.0,29.91,West,272,4.0,6.0,47,0.00,,,0.01,weatherlink.com 1.10,2013-02-23 08:06:00,
2013-02-23 01:21:00,27.0,8.0,29.90,West,261,4.0,8.0,45,0.00,,,0.01,weatherlink.com 1.10,2013-02-23 08:21:00,
2013-02-23 01:36:00,27.0,8.0,29.90,WSW,243,2.0,5.0,44,0.00,,,0.01,weatherlink.com 1.10,2013-02-23 08:36:00,
2013-02-23 01:51:00,27.0,7.0,29.90,SSW,211,2.0,2.0,43,0.00,,,0.01,weatherlink.com 1.10,2013-02-23 08:51:00,
2013-02-23 02:06:00,26.9,6.0,29.89,SW,224,2.0,3.0,42,0.00,,,0.01,weatherlink.com 1.10,2013-02-23 09:06:00,
2013-02-23 02:21:00,27.1,6.0,29.88,WSW,237,0.0,3.0,41,0.00,,,0.01,weatherlink.com 1.10,2013-02-23 09:21:00,
2013-02-23 02:36:00,27.5,6.0,29.88,SW,229,1.0,2.0,40,0.00,,,0.01,weatherlink.com 1.10,2013-02-23 09:36:00,
2013-02-23 02:51:00,27.7,6.0,29.88,WSW,248,3.0,3.0,39,0.00,,,0.01,weatherlink.com 1.10,2013-02-23 09:51:00,
2013-02-23 03:06:00,27.7,6.0,29.86,WSW,255,2.0,5.0,39,0.00,,,0.01,weatherlink.com 1.10,2013-02-23 10:06:00,
2013-02-23 03:21:00,28.2,6.0,29.86,WSW,242,4.0,5.0,39,0.00,,,0.01,weatherlink.com 1.10,2013-02-23 10:21:00,
2013-02-23 03:36:00,28.4,6.0,29.85,WSW,255,2.0,5.0,38,0.00,,,0.01,weatherlink.com 1.10,2013-02-23 10:36:00,
2013-02-23 03:52:00,28.6,6.0,29.84,SW,219,4.0,6.0,38,0.00,,,0.01,weatherlink.com 1.10,2013-02-23 10:52:00,
2013-02-23 04:07:00,31.3,5.0,29.84,West,262,5.0,9.0,33,0.00,,,0.01,weatherlink.com 1.10,2013-02-23 11:07:00,
2013-02-23 04:22:00,32.1,4.0,29.83,SW,224,9.0,13.0,31,0.00,,,0.01,weatherlink.com 1.10,2013-02-23 11:22:00,
2013-02-23 04:37:00,33.5,3.0,29.83,WNW,283,9.0,10.0,28,0.00,,,0.01,weatherlink.com 1.10,2013-02-23 11:37:00,
2013-02-23 04:52:00,33.7,4.0,29.82,WNW,293,8.0,10.0,28,0.00,,,0.01,weatherlink.com 1.10,2013-02-23 11:52:00,
2013-02-23 05:07:00,33.1,4.0,29.83,West,276,3.0,6.0,29,0.00,,,0.01,weatherlink.com 1.10,2013-02-23 12:07:00,
2013-02-23 05:22:00,32.3,5.0,29.82,West,280,4.0,5.0,31,0.00,,,0.01,weatherlink.com 1.10,2013-02-23 12:22:00,
2013-02-23 05:37:00,32.5,4.0,29.82,West,270,2.0,7.0,30,0.00,,,0.01,weatherlink.com 1.10,2013-02-23 12:37:00,
2013-02-23 05:52:00,32.8,4.0,29.82,WNW,295,5.0,9.0,30,0.00,,,0.01,weatherlink.com 1.10,2013-02-23 12:52:00,
2013-02-23 06:07:00,32.0,4.0,29.81,WSW,250,6.0,7.0,31,0.00,,,0.01,weatherlink.com 1.10,2013-02-23 13:07:00,
2013-02-23 06:22:00,31.0,4.0,29.81,WSW,245,3.0,5.0,32,0.00,,,0.01,weatherlink.com 1.10,2013-02-23 13:22:00,
2013-02-23 06:37:00,30.0,6.0,29.81,SW,226,2.0,4.0,37,0.00,,,0.01,weatherlink.com 1.10,2013-02-23 13:37:00,
2013-02-23 06:52:00,29.5,7.0,29.82,SW,226,2.0,5.0,39,0.00,,,0.01,weatherlink.com 1.10,2013-02-23 13:52:00,
2013-02-23 07:07:00,31.3,5.0,29.81,SW,222,5.0,5.0,33,0.00,,,0.01,weatherlink.com 1.10,2013-02-23 14:07:00,
2013-02-23 07:23:00,32.8,4.0,29.82,WSW,257,7.0,7.0,30,0.00,,,0.01,weatherlink.com 1.10,2013-02-23 14:23:00,
2013-02-23 07:38:00,33.1,5.0,29.81,WNW,295,2.0,5.0,30,0.00,,,0.01,weatherlink.com 1.10,2013-02-23 14:38:00,
2013-02-23 07:53:00,32.5,4.0,29.82,South,174,1.0,3.0,30,0.00,,,0.01,weatherlink.com 1.10,2013-02-23 14:53:00,
2013-02-23 08:08:00,32.6,5.0,29.82,SW,215,0.0,1.0,31,0.00,,,0.01,weatherlink.com 1.10,2013-02-23 15:08:00,
2013-02-23 08:23:00,34.1,6.0,29.82,NW,321,0.0,2.0,30,0.00,,,0.01,weatherlink.com 1.10,2013-02-23 15:23:00,
2013-02-23 08:38:00,33.8,7.0,29.82,WNW,287,0.0,3.0,32,0.00,,,0.01,weatherlink.com 1.10,2013-02-23 15:38:00,
2013-02-23 08:53:00,35.2,8.0,29.82,SE,145,0.0,3.0,32,0.00,,,0.01,weatherlink.com 1.10,2013-02-23 15:53:00,
2013-02-23 09:08:00,35.6,8.0,29.82,NW,304,1.0,4.0,32,0.00,,,0.01,weatherlink.com 1.10,2013-02-23 16:08:00,
2013-02-23 09:23:00,35.7,8.0,29.82,West,277,2.0,5.0,32,0.00,,,0.01,weatherlink.com 1.10,2013-02-23 16:23:00,
2013-02-23 09:38:00,36.1,9.0,29.82,West,266,1.0,5.0,33,0.00,,,0.01,weatherlink.com 1.10,2013-02-23 16:38:00,
2013-02-23 09:53:00,36.3,10.0,29.82,West,259,5.0,7.0,34,0.00,,,0.01,weatherlink.com 1.10,2013-02-23 16:53:00,
2013-02-23 10:08:00,35.5,11.0,29.82,SW,228,5.0,11.0,37,0.00,,,0.01,weatherlink.com 1.10,2013-02-23 17:08:00,
2013-02-23 10:23:00,36.8,12.0,29.82,NW,325,1.0,8.0,36,0.00,,,0.01,weatherlink.com 1.10,2013-02-23 17:23:00,
2013-02-23 10:39:00,37.9,12.0,29.81,West,277,1.0,5.0,35,0.00,,,0.01,weatherlink.com 1.10,2013-02-23 17:39:00,
2013-02-23 10:54:00,38.2,13.0,29.81,NW,316,3.0,5.0,35,0.00,,,0.01,weatherlink.com 1.10,2013-02-23 17:54:00,
2013-02-23 11:09:00,39.7,13.0,29.80,WSW,239,5.0,9.0,33,0.00,,,0.01,weatherlink.com 1.10,2013-02-23 18:09:00,
2013-02-23 11:24:00,41.2,12.0,29.79,WNW,290,7.0,11.0,30,0.00,,,0.01,weatherlink.com 1.10,2013-02-23 18:24:00,
2013-02-23 11:39:00,39.1,16.0,29.79,NW,318,3.0,12.0,39,0.00,,,0.01,weatherlink.com 1.10,2013-02-23 18:39:00,
2013-02-23 11:54:00,39.5,16.0,29.78,SW,224,0.0,11.0,39,0.00,,,0.01,weatherlink.com 1.10,2013-02-23 18:54:00,
2013-02-23 12:09:00,40.6,10.0,29.77,WSW,241,14.0,20.0,28,0.00,,,0.00,weatherlink.com 1.10,2013-02-23 19:09:00,
2013-02-23 12:24:00,41.5,12.0,29.76,West,273,5.0,17.0,30,0.00,,,0.00,weatherlink.com 1.10,2013-02-23 19:24:00,
2013-02-23 12:39:00,41.2,12.0,29.75,West,278,12.0,15.0,30,0.00,,,0.00,weatherlink.com 1.10,2013-02-23 19:39:00,
2013-02-23 12:54:00,41.3,10.0,29.74,SW,231,6.0,17.0,28,0.00,,,0.00,weatherlink.com 1.10,2013-02-23 19:54:00,
2013-02-23 13:09:00,42.4,11.0,29.72,West,273,6.0,16.0,28,0.01,,,0.01,weatherlink.com 1.10,2013-02-23 20:09:00,
2013-02-23 13:24:00,40.7,15.0,29.71,West,266,8.0,10.0,36,0.02,,,0.02,weatherlink.com 1.10,2013-02-23 20:24:00,
2013-02-23 13:39:00,41.9,17.0,29.71,SW,236,9.0,12.0,37,0.02,,,0.02,weatherlink.com 1.10,2013-02-23 20:39:00,
2013-02-23 13:54:00,42.2,20.0,29.69,WNW,297,3.0,9.0,41,0.03,,,0.03,weatherlink.com 1.10,2013-02-23 20:54:00,
2013-02-23 14:09:00,41.9,18.0,29.68,West,260,3.0,11.0,39,0.03,,,0.04,weatherlink.com 1.10,2013-02-23 21:09:00,
2013-02-23 14:24:00,41.9,19.0,29.68,NW,319,1.0,5.0,40,0.02,,,0.04,weatherlink.com 1.10,2013-02-23 21:24:00,
2013-02-23 14:39:00,42.8,20.0,29.67,WNW,302,4.0,8.0,40,0.03,,,0.05,weatherlink.com 1.10,2013-02-23 21:39:00,
2013-02-23 14:55:00,42.8,20.0,29.66,WSW,253,4.0,8.0,40,0.02,,,0.05,weatherlink.com 1.10,2013-02-23 21:55:00,
2013-02-23 15:10:00,42.6,18.0,29.66,WNW,284,0.0,5.0,38,0.01,,,0.05,weatherlink.com 1.10,2013-02-23 22:10:00,
2013-02-23 15:25:00,42.5,18.0,29.65,SSW,212,2.0,5.0,38,0.01,,,0.05,weatherlink.com 1.10,2013-02-23 22:25:00,
2013-02-23 15:40:00,42.0,18.0,29.65,NNW,333,5.0,7.0,38,0.00,,,0.05,weatherlink.com 1.10,2013-02-23 22:40:00,
2013-02-23 15:55:00,41.5,20.0,29.65,WNW,294,2.0,5.0,42,0.01,,,0.06,weatherlink.com 1.10,2013-02-23 22:55:00,
2013-02-23 16:10:00,40.9,20.0,29.65,WNW,287,0.0,5.0,44,0.01,,,0.06,weatherlink.com 1.10,2013-02-23 23:10:00,
2013-02-23 16:25:00,41.0,19.0,29.64,West,259,3.0,6.0,42,0.01,,,0.06,weatherlink.com 1.10,2013-02-23 23:25:00,
2013-02-23 16:40:00,41.9,15.0,29.62,West,273,16.0,17.0,34,0.01,,,0.06,weatherlink.com 1.10,2013-02-23 23:40:00,
2013-02-23 16:55:00,41.7,16.0,29.61,WSW,248,11.0,17.0,35,0.00,,,0.06,weatherlink.com 1.10,2013-02-23 23:55:00,
2013-02-23 17:10:00,42.0,16.0,29.62,SSW,200,2.0,12.0,35,0.00,,,0.06,weatherlink.com 1.10,2013-02-24 00:10:00,
2013-02-23 17:25:00,40.7,16.0,29.62,East,91,1.0,7.0,37,0.00,,,0.06,weatherlink.com 1.10,2013-02-24 00:25:00,
2013-02-23 17:40:00,38.0,16.0,29.60,SW,229,8.0,15.0,41,0.00,,,0.06,weatherlink.com 1.10,2013-02-24 00:40:00,
2013-02-23 17:55:00,37.3,14.0,29.61,SW,218,10.0,18.0,39,0.00,,,0.06,weatherlink.com 1.10,2013-02-24 00:55:00,
2013-02-23 18:10:00,37.0,13.0,29.61,SW,229,10.0,20.0,37,0.00,,,0.06,weatherlink.com 1.10,2013-02-24 01:10:00,
2013-02-23 18:25:00,37.3,14.0,29.59,WSW,256,17.0,22.0,39,0.00,,,0.06,weatherlink.com 1.10,2013-02-24 01:25:00,
2013-02-23 18:40:00,36.8,16.0,29.59,West,262,15.0,27.0,42,0.00,,,0.06,weatherlink.com 1.10,2013-02-24 01:40:00,
2013-02-23 18:55:00,36.5,15.0,29.59,West,260,15.0,25.0,41,0.00,,,0.06,weatherlink.com 1.10,2013-02-24 01:55:00,
2013-02-23 19:10:00,36.4,15.0,29.59,SSE,153,23.0,28.0,42,0.00,,,0.06,weatherlink.com 1.10,2013-02-24 02:10:00,
2013-02-23 19:25:00,37.2,14.0,29.59,West,277,23.0,30.0,38,0.00,,,0.06,weatherlink.com 1.10,2013-02-24 02:25:00,
2013-02-23 19:40:00,37.3,13.0,29.58,WSW,251,21.0,28.0,37,0.00,,,0.06,weatherlink.com 1.10,2013-02-24 02:40:00,
2013-02-23 19:55:00,37.0,13.0,29.57,SW,215,8.0,24.0,37,0.00,,,0.06,weatherlink.com 1.10,2013-02-24 02:55:00,
2013-02-23 20:10:00,36.8,12.0,29.57,WNW,290,6.0,23.0,36,0.00,,,0.06,weatherlink.com 1.10,2013-02-24 03:10:00,
2013-02-23 20:25:00,36.6,12.0,29.57,West,266,15.0,26.0,36,0.00,,,0.06,weatherlink.com 1.10,2013-02-24 03:25:00,
2013-02-23 20:40:00,36.0,12.0,29.57,South,186,10.0,24.0,38,0.00,,,0.06,weatherlink.com 1.10,2013-02-24 03:40:00,
2013-02-23 20:55:00,35.6,13.0,29.57,West,262,12.0,23.0,40,0.00,,,0.06,weatherlink.com 1.10,2013-02-24 03:55:00,
2013-02-23 21:10:00,35.6,13.0,29.57,WSW,240,16.0,28.0,39,0.00,,,0.06,weatherlink.com 1.10,2013-02-24 04:10:00,
2013-02-23 21:26:00,35.3,14.0,29.56,SW,219,19.0,31.0,41,0.00,,,0.06,weatherlink.com 1.10,2013-02-24 04:26:00,
2013-02-23 21:40:00,35.0,14.0,29.58,SW,226,23.0,28.0,43,0.00,,,0.06,weatherlink.com 1.10,2013-02-24 04:40:00,
2013-02-23 21:55:00,34.4,14.0,29.56,SW,233,18.0,33.0,44,0.00,,,0.06,weatherlink.com 1.10,2013-02-24 04:55:00,
2013-02-23 22:10:00,34.2,14.0,29.55,WSW,239,22.0,33.0,43,0.00,,,0.06,weatherlink.com 1.10,2013-02-24 05:10:00,
2013-02-23 22:25:00,33.8,15.0,29.55,SW,224,16.0,35.0,46,0.00,,,0.06,weatherlink.com 1.10,2013-02-24 05:25:00,
2013-02-23 22:41:00,33.6,15.0,29.55,WSW,248,22.0,36.0,47,0.00,,,0.06,weatherlink.com 1.10,2013-02-24 05:41:00,
2013-02-23 22:56:00,33.3,15.0,29.55,SW,232,25.0,38.0,47,0.00,,,0.06,weatherlink.com 1.10,2013-02-24 05:56:00,
2013-02-23 23:11:00,33.2,14.0,29.55,SSW,208,20.0,35.0,46,0.00,,,0.06,weatherlink.com 1.10,2013-02-24 06:11:00,
2013-02-23 23:26:00,33.3,14.0,29.55,West,269,20.0,32.0,45,0.00,,,0.06,weatherlink.com 1.10,2013-02-24 06:26:00,
2013-02-23 23:41:00,33.3,14.0,29.54,WNW,283,11.0,34.0,46,0.00,,,0.06,weatherlink.com 1.10,2013-02-24 06:41:00,
2013-02-23 23:56:00,32.8,15.0,29.52,West,271,25.0,32.0,49,0.00,,,0.06,weatherlink.com 1.10,2013-02-24 06:56:00,